Share

Ruso, ND (58778)

South Prairie, Ward County (KNDSAWYE2) Elev 2000 ft | 48.00 °N, 101.23 °W | Change Station

Current weather conditions updated 0 second ago

Clear
Clear
38.3 °F
Feels Like 32 °F
N
9.2
Wind Variable Wind from SW
Gusts 11.4 mph
Sunrise 6:44 AM
Sunset 8:40 PM
Moon Waning Gibbous

Today is forecast to be Much Warmer than yesterday.

Pressure 29.98 in
Visibility 10.0 miles
Clouds Clear
Windchill 32 °F
Dew Point 37 °F
Humidity 94%
Rainfall 0.00 in
Snow Depth Not available.
UV 0.0 out of 16
Pollen 10.30 out of 12
Air Quality Not available.
Flu Activity Sporadic
METAR KMOT 200854Z AUTO 14004KT 10SM CLR 01/M02 A2994 RMK AO2 SLP151 T00111017 58003

More Conditions Fewer Conditions

Pressure 29.98 in
Visibility 10.0 miles
Clouds Clear
Windchill 32 °F
Dew Point 37 °F
Humidity 94%
Rainfall 0.00 in
Snow Depth Not available.
UV 0.0 out of 16
Pollen 10.30 out of 12
Air Quality Not available.
Flu Activity Sporadic
METAR KMOT 200854Z AUTO 14004KT 10SM CLR 01/M02 A2994 RMK AO2 SLP151 T00111017 58003

More Conditions Fewer Conditions

10-Day Weather Forecast

Almanac

Astronomy

Apr. 20, 2014 Rise Set
Actual Time 6:44 AM CDT 8:40 PM CDT
Civil Twilight 6:11 AM CDT 9:13 PM CDT
Nautical Twilight 5:31 AM CDT 9:54 PM CDT
Astronomical Twilight 4:46 AM CDT 10:39 PM CDT
Moon 1:30 AM CDT 10:58 AM CDT
Length of Visible Light 15h 01m
Length of Day
13h 55m
Tomorrow will be 3m 15s longer.
Waning Gibbous, 72% of the Moon is Illuminated
Today
Waning Gibbous
Apr 22
Last Quarter
Apr 29
New
May 6
First Quarter
May 14
Full

Today's Extremes

State Highs State Lows

Community

  • Sunny day at the coast-Cape Arago Lighthouse
    Sunny day at the coast-Cape Arago Lighthouse
  • Cherry Blossoms
    Cherry Blossoms
  • White-Crowned Sparrow
    White-Crowned Sparrow
  • New Day
    New Day
  • Happy Easter!
    Happy Easter!

WunderPhotos

Upload Photos

1,703,122 photos uploaded!

WunderBlogs® & News

Nearby

Snow Depth

Station Depth Elevation
No new snow has been reported.

Coastal Water Temperatures

Place Temperature
No Stations Reporting

Earthquake Activity

City Distance Mag. Time & Date
No recent earthquake activity has been reported nearby.
Minimum magnitude displayed is 2.5.

Nearby Weather Stations

Station Location Temp. Windchill Dew Point Humidity Wind Precip. Elev Updated Type
South Prairie, Ward County, Sawyer, ND 38.3 °F 32 °F 37 °F 94% SW  at  9.2 mph 0.00 in / hr 2000 ft 4:05 AM CDT Rapid Fire

Show More Stations Show Fewer Stations

What do you think?

We're not finished. Please let us know what you like, what you don't like, and what you are still missing.